sensor_id;sensor_type;location;lat;lon;timestamp;temperature;humidity
23289;DHT22;11813;50.834;4.280;2023-07-31T00:00:06;18.40;99.90
23289;DHT22;11813;50.834;4.280;2023-07-31T00:02:34;18.50;99.90
23289;DHT22;11813;50.834;4.280;2023-07-31T00:05:00;18.50;99.90
23289;DHT22;11813;50.834;4.280;2023-07-31T00:07:26;18.50;99.90
23289;DHT22;11813;50.834;4.280;2023-07-31T00:09:51;18.40;99.90
23289;DHT22;11813;50.834;4.280;2023-07-31T00:12:19;18.40;99.90
23289;DHT22;11813;50.834;4.280;2023-07-31T00:14:44;18.40;99.90
23289;DHT22;11813;50.834;4.280;2023-07-31T00:17:10;18.50;99.90
23289;DHT22;11813;50.834;4.280;2023-07-31T00:19:35;18.50;99.90
23289;DHT22;11813;50.834;4.280;2023-07-31T00:22:01;18.50;99.90
23289;DHT22;11813;50.834;4.280;2023-07-31T00:24:27;18.60;99.90
23289;DHT22;11813;50.834;4.280;2023-07-31T00:26:52;18.50;99.90
23289;DHT22;11813;50.834;4.280;2023-07-31T00:29:18;18.50;99.90
23289;DHT22;11813;50.834;4.280;2023-07-31T00:31:43;18.50;99.90
23289;DHT22;11813;50.834;4.280;2023-07-31T00:34:09;18.50;99.90
23289;DHT22;11813;50.834;4.280;2023-07-31T00:36:34;18.50;99.90
23289;DHT22;11813;50.834;4.280;2023-07-31T00:39:00;18.60;99.90
23289;DHT22;11813;50.834;4.280;2023-07-31T00:41:25;18.60;99.90
23289;DHT22;11813;50.834;4.280;2023-07-31T00:43:51;18.50;99.90
23289;DHT22;11813;50.834;4.280;2023-07-31T00:46:17;18.50;99.90
23289;DHT22;11813;50.834;4.280;2023-07-31T00:48:42;18.50;99.90
23289;DHT22;11813;50.834;4.280;2023-07-31T00:51:08;18.40;99.90
23289;DHT22;11813;50.834;4.280;2023-07-31T00:53:35;18.40;99.90
23289;DHT22;11813;50.834;4.280;2023-07-31T00:56:00;18.40;99.90
23289;DHT22;11813;50.834;4.280;2023-07-31T00:58:26;18.50;99.90
23289;DHT22;11813;50.834;4.280;2023-07-31T01:00:52;18.40;99.90
23289;DHT22;11813;50.834;4.280;2023-07-31T01:03:17;18.40;99.90
23289;DHT22;11813;50.834;4.280;2023-07-31T01:11:53;18.40;99.90
23289;DHT22;11813;50.834;4.280;2023-07-31T01:14:21;18.30;99.90
23289;DHT22;11813;50.834;4.280;2023-07-31T01:16:47;18.30;99.90
23289;DHT22;11813;50.834;4.280;2023-07-31T01:19:14;18.30;99.90
23289;DHT22;11813;50.834;4.280;2023-07-31T01:27:44;18.30;99.90
23289;DHT22;11813;50.834;4.280;2023-07-31T01:30:16;18.30;99.90
23289;DHT22;11813;50.834;4.280;2023-07-31T01:32:43;18.30;99.90
23289;DHT22;11813;50.834;4.280;2023-07-31T01:35:10;18.30;99.90
23289;DHT22;11813;50.834;4.280;2023-07-31T01:37:35;18.40;99.90
23289;DHT22;11813;50.834;4.280;2023-07-31T01:40:01;18.40;99.90
23289;DHT22;11813;50.834;4.280;2023-07-31T01:42:27;18.40;99.90
23289;DHT22;11813;50.834;4.280;2023-07-31T01:44:52;18.50;99.90
23289;DHT22;11813;50.834;4.280;2023-07-31T01:47:18;18.40;99.90
23289;DHT22;11813;50.834;4.280;2023-07-31T01:49:43;18.30;99.90
23289;DHT22;11813;50.834;4.280;2023-07-31T01:52:09;18.30;99.90
23289;DHT22;11813;50.834;4.280;2023-07-31T01:54:34;18.40;99.90
23289;DHT22;11813;50.834;4.280;2023-07-31T01:57:02;18.30;99.90
23289;DHT22;11813;50.834;4.280;2023-07-31T01:59:27;18.30;99.90
23289;DHT22;11813;50.834;4.280;2023-07-31T02:01:54;18.30;99.90
23289;DHT22;11813;50.834;4.280;2023-07-31T02:04:20;18.30;99.90
23289;DHT22;11813;50.834;4.280;2023-07-31T02:06:45;18.30;99.90
23289;DHT22;11813;50.834;4.280;2023-07-31T02:09:11;18.40;99.90
23289;DHT22;11813;50.834;4.280;2023-07-31T02:11:36;18.40;99.90
23289;DHT22;11813;50.834;4.280;2023-07-31T02:14:02;18.30;99.90
23289;DHT22;11813;50.834;4.280;2023-07-31T02:16:27;18.40;99.90
23289;DHT22;11813;50.834;4.280;2023-07-31T02:18:53;18.40;99.90
23289;DHT22;11813;50.834;4.280;2023-07-31T02:21:18;18.60;99.90
23289;DHT22;11813;50.834;4.280;2023-07-31T02:23:44;18.60;99.90
23289;DHT22;11813;50.834;4.280;2023-07-31T02:26:10;18.70;99.90
23289;DHT22;11813;50.834;4.280;2023-07-31T02:28:35;18.60;99.90
23289;DHT22;11813;50.834;4.280;2023-07-31T02:31:01;18.60;99.90
23289;DHT22;11813;50.834;4.280;2023-07-31T02:33:26;18.60;99.90
23289;DHT22;11813;50.834;4.280;2023-07-31T02:35:52;18.60;99.90
23289;DHT22;11813;50.834;4.280;2023-07-31T02:38:17;18.60;99.90
23289;DHT22;11813;50.834;4.280;2023-07-31T02:40:43;18.60;99.90
23289;DHT22;11813;50.834;4.280;2023-07-31T02:43:09;18.60;99.90
23289;DHT22;11813;50.834;4.280;2023-07-31T02:45:34;18.50;99.90
23289;DHT22;11813;50.834;4.280;2023-07-31T02:48:00;18.60;99.90
23289;DHT22;11813;50.834;4.280;2023-07-31T02:50:26;18.50;99.90
23289;DHT22;11813;50.834;4.280;2023-07-31T02:52:53;18.40;99.90
23289;DHT22;11813;50.834;4.280;2023-07-31T02:55:18;18.40;99.90
23289;DHT22;11813;50.834;4.280;2023-07-31T02:57:44;18.50;99.90
23289;DHT22;11813;50.834;4.280;2023-07-31T03:00:10;18.40;99.90
23289;DHT22;11813;50.834;4.280;2023-07-31T03:02:35;18.40;99.90
23289;DHT22;11813;50.834;4.280;2023-07-31T03:05:01;18.40;99.90
23289;DHT22;11813;50.834;4.280;2023-07-31T03:07:26;18.40;99.90
23289;DHT22;11813;50.834;4.280;2023-07-31T03:09:52;18.40;99.90
23289;DHT22;11813;50.834;4.280;2023-07-31T03:12:18;18.40;99.90
23289;DHT22;11813;50.834;4.280;2023-07-31T03:14:44;18.40;99.90
23289;DHT22;11813;50.834;4.280;2023-07-31T03:17:10;18.40;99.90
23289;DHT22;11813;50.834;4.280;2023-07-31T03:19:35;18.30;99.90
23289;DHT22;11813;50.834;4.280;2023-07-31T03:22:01;18.30;99.90
23289;DHT22;11813;50.834;4.280;2023-07-31T03:24:28;18.10;99.90
23289;DHT22;11813;50.834;4.280;2023-07-31T03:26:54;18.00;99.90
23289;DHT22;11813;50.834;4.280;2023-07-31T03:29:19;18.00;99.90
23289;DHT22;11813;50.834;4.280;2023-07-31T03:31:45;18.00;99.90
23289;DHT22;11813;50.834;4.280;2023-07-31T03:34:10;18.00;99.90
23289;DHT22;11813;50.834;4.280;2023-07-31T03:36:36;18.00;99.90
23289;DHT22;11813;50.834;4.280;2023-07-31T03:39:01;18.00;99.90
23289;DHT22;11813;50.834;4.280;2023-07-31T03:41:27;17.90;99.90
23289;DHT22;11813;50.834;4.280;2023-07-31T03:43:53;17.90;99.90
23289;DHT22;11813;50.834;4.280;2023-07-31T03:46:18;17.90;99.90
23289;DHT22;11813;50.834;4.280;2023-07-31T03:48:44;17.90;99.90
23289;DHT22;11813;50.834;4.280;2023-07-31T03:51:10;18.00;99.90
23289;DHT22;11813;50.834;4.280;2023-07-31T03:53:35;18.00;99.90
23289;DHT22;11813;50.834;4.280;2023-07-31T03:56:01;18.00;99.90
23289;DHT22;11813;50.834;4.280;2023-07-31T03:58:26;18.00;99.90
23289;DHT22;11813;50.834;4.280;2023-07-31T04:00:52;17.90;99.90
23289;DHT22;11813;50.834;4.280;2023-07-31T04:03:17;17.90;99.90
23289;DHT22;11813;50.834;4.280;2023-07-31T04:05:43;17.80;99.90
23289;DHT22;11813;50.834;4.280;2023-07-31T04:08:09;17.80;99.90
23289;DHT22;11813;50.834;4.280;2023-07-31T04:10:34;17.70;99.90
23289;DHT22;11813;50.834;4.280;2023-07-31T04:13:00;17.70;99.90
23289;DHT22;11813;50.834;4.280;2023-07-31T04:15:26;17.70;99.90
23289;DHT22;11813;50.834;4.280;2023-07-31T04:17:52;17.70;99.90
23289;DHT22;11813;50.834;4.280;2023-07-31T04:20:17;17.80;99.90
23289;DHT22;11813;50.834;4.280;2023-07-31T04:22:43;17.90;99.90
23289;DHT22;11813;50.834;4.280;2023-07-31T04:25:09;17.80;99.90
23289;DHT22;11813;50.834;4.280;2023-07-31T04:27:34;17.80;99.90
23289;DHT22;11813;50.834;4.280;2023-07-31T04:30:00;17.80;99.90
23289;DHT22;11813;50.834;4.280;2023-07-31T04:32:25;17.80;99.90
23289;DHT22;11813;50.834;4.280;2023-07-31T04:34:51;17.90;99.90
23289;DHT22;11813;50.834;4.280;2023-07-31T04:37:16;17.90;99.90
23289;DHT22;11813;50.834;4.280;2023-07-31T04:39:42;17.80;99.90
23289;DHT22;11813;50.834;4.280;2023-07-31T04:42:08;17.80;99.90
23289;DHT22;11813;50.834;4.280;2023-07-31T04:44:33;17.80;99.90
23289;DHT22;11813;50.834;4.280;2023-07-31T04:46:59;17.90;99.90
23289;DHT22;11813;50.834;4.280;2023-07-31T04:49:24;17.90;99.90
23289;DHT22;11813;50.834;4.280;2023-07-31T04:51:50;17.90;99.90
23289;DHT22;11813;50.834;4.280;2023-07-31T04:54:15;17.90;99.90
23289;DHT22;11813;50.834;4.280;2023-07-31T04:56:41;17.80;99.90
23289;DHT22;11813;50.834;4.280;2023-07-31T04:59:07;17.80;99.90
23289;DHT22;11813;50.834;4.280;2023-07-31T05:01:32;17.80;99.90
23289;DHT22;11813;50.834;4.280;2023-07-31T05:03:58;17.80;99.90
23289;DHT22;11813;50.834;4.280;2023-07-31T05:06:23;17.70;99.90
23289;DHT22;11813;50.834;4.280;2023-07-31T05:08:49;17.60;99.90
23289;DHT22;11813;50.834;4.280;2023-07-31T05:11:15;17.60;99.90
23289;DHT22;11813;50.834;4.280;2023-07-31T05:13:40;17.60;99.90
23289;DHT22;11813;50.834;4.280;2023-07-31T05:16:06;17.60;99.90
23289;DHT22;11813;50.834;4.280;2023-07-31T05:18:31;17.60;99.90
23289;DHT22;11813;50.834;4.280;2023-07-31T05:20:57;17.50;99.90
23289;DHT22;11813;50.834;4.280;2023-07-31T05:23:23;17.40;99.90
23289;DHT22;11813;50.834;4.280;2023-07-31T05:25:48;17.40;99.90
23289;DHT22;11813;50.834;4.280;2023-07-31T05:28:14;17.30;99.90
23289;DHT22;11813;50.834;4.280;2023-07-31T05:30:39;17.40;99.90
23289;DHT22;11813;50.834;4.280;2023-07-31T05:33:05;17.40;99.90
23289;DHT22;11813;50.834;4.280;2023-07-31T05:35:30;17.40;99.90
23289;DHT22;11813;50.834;4.280;2023-07-31T05:37:56;17.40;99.90
23289;DHT22;11813;50.834;4.280;2023-07-31T05:40:21;17.40;99.90
23289;DHT22;11813;50.834;4.280;2023-07-31T05:42:47;17.50;99.90
23289;DHT22;11813;50.834;4.280;2023-07-31T05:45:13;17.60;99.90
23289;DHT22;11813;50.834;4.280;2023-07-31T05:47:39;17.60;99.90
23289;DHT22;11813;50.834;4.280;2023-07-31T05:50:05;17.50;99.90
23289;DHT22;11813;50.834;4.280;2023-07-31T05:52:30;17.50;99.90
23289;DHT22;11813;50.834;4.280;2023-07-31T05:54:56;17.50;99.90
23289;DHT22;11813;50.834;4.280;2023-07-31T05:57:22;17.40;99.90
23289;DHT22;11813;50.834;4.280;2023-07-31T05:59:47;17.40;99.90
23289;DHT22;11813;50.834;4.280;2023-07-31T06:02:13;17.40;99.90
23289;DHT22;11813;50.834;4.280;2023-07-31T06:04:38;17.50;99.90
23289;DHT22;11813;50.834;4.280;2023-07-31T06:07:04;17.60;99.90
23289;DHT22;11813;50.834;4.280;2023-07-31T06:09:30;17.60;99.90
23289;DHT22;11813;50.834;4.280;2023-07-31T06:11:56;17.60;99.90
23289;DHT22;11813;50.834;4.280;2023-07-31T06:14:22;17.60;99.90
23289;DHT22;11813;50.834;4.280;2023-07-31T06:16:47;17.60;99.90
23289;DHT22;11813;50.834;4.280;2023-07-31T06:19:13;17.50;99.90
23289;DHT22;11813;50.834;4.280;2023-07-31T06:21:39;17.50;99.90
23289;DHT22;11813;50.834;4.280;2023-07-31T06:24:05;17.60;99.90
23289;DHT22;11813;50.834;4.280;2023-07-31T06:26:31;17.60;99.90
23289;DHT22;11813;50.834;4.280;2023-07-31T06:28:57;17.70;99.90
23289;DHT22;11813;50.834;4.280;2023-07-31T06:31:22;17.70;99.90
23289;DHT22;11813;50.834;4.280;2023-07-31T06:33:49;17.70;99.90
23289;DHT22;11813;50.834;4.280;2023-07-31T06:36:15;17.60;99.90
23289;DHT22;11813;50.834;4.280;2023-07-31T06:38:40;17.70;99.90
23289;DHT22;11813;50.834;4.280;2023-07-31T06:41:06;17.70;99.90
23289;DHT22;11813;50.834;4.280;2023-07-31T06:43:32;17.80;99.90
23289;DHT22;11813;50.834;4.280;2023-07-31T06:45:57;17.80;99.90
23289;DHT22;11813;50.834;4.280;2023-07-31T06:48:23;17.80;99.90
23289;DHT22;11813;50.834;4.280;2023-07-31T06:50:48;17.80;99.90
23289;DHT22;11813;50.834;4.280;2023-07-31T06:53:14;17.90;99.90
23289;DHT22;11813;50.834;4.280;2023-07-31T06:55:40;18.00;99.90
23289;DHT22;11813;50.834;4.280;2023-07-31T06:58:05;17.90;99.90
23289;DHT22;11813;50.834;4.280;2023-07-31T07:00:31;18.00;99.90
23289;DHT22;11813;50.834;4.280;2023-07-31T07:02:57;18.00;99.90
23289;DHT22;11813;50.834;4.280;2023-07-31T07:05:23;18.10;99.90
23289;DHT22;11813;50.834;4.280;2023-07-31T07:07:50;18.20;99.90
23289;DHT22;11813;50.834;4.280;2023-07-31T07:10:17;18.20;99.90
23289;DHT22;11813;50.834;4.280;2023-07-31T07:12:42;18.20;99.90
23289;DHT22;11813;50.834;4.280;2023-07-31T07:15:08;18.10;99.90
23289;DHT22;11813;50.834;4.280;2023-07-31T07:17:34;18.20;99.90
23289;DHT22;11813;50.834;4.280;2023-07-31T07:20:00;18.20;99.90
23289;DHT22;11813;50.834;4.280;2023-07-31T07:22:26;18.20;99.90
23289;DHT22;11813;50.834;4.280;2023-07-31T07:24:53;18.20;99.90
23289;DHT22;11813;50.834;4.280;2023-07-31T07:27:19;18.30;99.90
23289;DHT22;11813;50.834;4.280;2023-07-31T07:29:45;18.30;99.90
23289;DHT22;11813;50.834;4.280;2023-07-31T07:32:11;18.30;99.90
23289;DHT22;11813;50.834;4.280;2023-07-31T07:34:37;18.30;99.90
23289;DHT22;11813;50.834;4.280;2023-07-31T07:37:03;18.30;99.90
23289;DHT22;11813;50.834;4.280;2023-07-31T07:39:28;18.30;99.90
23289;DHT22;11813;50.834;4.280;2023-07-31T07:41:54;18.30;99.90
23289;DHT22;11813;50.834;4.280;2023-07-31T07:44:20;18.30;99.90
23289;DHT22;11813;50.834;4.280;2023-07-31T07:46:45;18.40;99.90
23289;DHT22;11813;50.834;4.280;2023-07-31T07:49:11;18.30;99.90
23289;DHT22;11813;50.834;4.280;2023-07-31T07:51:36;18.30;99.90
23289;DHT22;11813;50.834;4.280;2023-07-31T07:54:02;18.30;99.90
23289;DHT22;11813;50.834;4.280;2023-07-31T07:56:27;18.30;99.90
23289;DHT22;11813;50.834;4.280;2023-07-31T07:58:54;18.30;99.90
23289;DHT22;11813;50.834;4.280;2023-07-31T08:01:20;18.30;99.90
23289;DHT22;11813;50.834;4.280;2023-07-31T08:03:46;18.30;99.90
23289;DHT22;11813;50.834;4.280;2023-07-31T08:06:12;18.30;99.90
23289;DHT22;11813;50.834;4.280;2023-07-31T08:08:38;18.30;99.90
23289;DHT22;11813;50.834;4.280;2023-07-31T08:11:04;18.50;99.90
23289;DHT22;11813;50.834;4.280;2023-07-31T08:13:29;18.50;99.90
23289;DHT22;11813;50.834;4.280;2023-07-31T08:15:55;18.50;99.90
23289;DHT22;11813;50.834;4.280;2023-07-31T08:18:21;18.60;99.90
23289;DHT22;11813;50.834;4.280;2023-07-31T08:20:46;18.50;99.90
23289;DHT22;11813;50.834;4.280;2023-07-31T08:23:12;18.40;99.90
23289;DHT22;11813;50.834;4.280;2023-07-31T08:25:38;18.30;99.90
23289;DHT22;11813;50.834;4.280;2023-07-31T08:28:05;18.30;99.90
23289;DHT22;11813;50.834;4.280;2023-07-31T08:30:30;18.30;99.90
23289;DHT22;11813;50.834;4.280;2023-07-31T08:32:56;18.30;99.90
23289;DHT22;11813;50.834;4.280;2023-07-31T08:35:22;18.30;99.90
23289;DHT22;11813;50.834;4.280;2023-07-31T08:37:48;18.50;99.90
23289;DHT22;11813;50.834;4.280;2023-07-31T08:40:13;18.60;99.90
23289;DHT22;11813;50.834;4.280;2023-07-31T08:42:52;18.60;99.90
23289;DHT22;11813;50.834;4.280;2023-07-31T08:45:19;18.60;99.90
23289;DHT22;11813;50.834;4.280;2023-07-31T08:47:47;18.60;99.90
23289;DHT22;11813;50.834;4.280;2023-07-31T08:50:13;18.60;99.90
23289;DHT22;11813;50.834;4.280;2023-07-31T08:52:40;18.50;99.90
23289;DHT22;11813;50.834;4.280;2023-07-31T08:55:06;18.40;99.90
23289;DHT22;11813;50.834;4.280;2023-07-31T08:57:34;18.40;99.90
23289;DHT22;11813;50.834;4.280;2023-07-31T09:00:00;18.50;99.90
23289;DHT22;11813;50.834;4.280;2023-07-31T09:02:34;18.50;99.90
23289;DHT22;11813;50.834;4.280;2023-07-31T09:05:01;18.40;99.90
23289;DHT22;11813;50.834;4.280;2023-07-31T09:07:29;18.40;99.90
23289;DHT22;11813;50.834;4.280;2023-07-31T09:09:54;18.50;99.90
23289;DHT22;11813;50.834;4.280;2023-07-31T09:12:20;18.50;99.90
23289;DHT22;11813;50.834;4.280;2023-07-31T09:14:47;18.50;99.90
23289;DHT22;11813;50.834;4.280;2023-07-31T09:17:12;18.60;99.90
23289;DHT22;11813;50.834;4.280;2023-07-31T09:19:38;18.60;99.90
23289;DHT22;11813;50.834;4.280;2023-07-31T09:22:05;18.70;99.90
23289;DHT22;11813;50.834;4.280;2023-07-31T09:24:32;18.70;99.90
23289;DHT22;11813;50.834;4.280;2023-07-31T09:27:00;18.80;99.90
23289;DHT22;11813;50.834;4.280;2023-07-31T09:29:29;19.00;99.90
23289;DHT22;11813;50.834;4.280;2023-07-31T09:31:57;19.10;99.90
23289;DHT22;11813;50.834;4.280;2023-07-31T09:34:29;19.20;99.90
23289;DHT22;11813;50.834;4.280;2023-07-31T09:37:01;19.00;99.90
23289;DHT22;11813;50.834;4.280;2023-07-31T09:39:27;18.90;99.90
23289;DHT22;11813;50.834;4.280;2023-07-31T09:41:56;18.90;99.90
23289;DHT22;11813;50.834;4.280;2023-07-31T09:44:21;18.70;99.90
23289;DHT22;11813;50.834;4.280;2023-07-31T09:47:02;18.80;99.90
23289;DHT22;11813;50.834;4.280;2023-07-31T09:49:28;19.00;99.90
23289;DHT22;11813;50.834;4.280;2023-07-31T09:51:54;18.90;99.90
23289;DHT22;11813;50.834;4.280;2023-07-31T09:54:20;18.90;99.90
23289;DHT22;11813;50.834;4.280;2023-07-31T09:56:47;18.90;99.90
23289;DHT22;11813;50.834;4.280;2023-07-31T09:59:17;18.90;99.90
23289;DHT22;11813;50.834;4.280;2023-07-31T10:01:44;18.80;99.90
23289;DHT22;11813;50.834;4.280;2023-07-31T10:04:11;18.80;99.90
23289;DHT22;11813;50.834;4.280;2023-07-31T10:06:38;18.80;99.90
23289;DHT22;11813;50.834;4.280;2023-07-31T10:09:09;18.90;99.90
23289;DHT22;11813;50.834;4.280;2023-07-31T10:11:41;18.90;99.90
23289;DHT22;11813;50.834;4.280;2023-07-31T10:14:08;19.00;99.90
23289;DHT22;11813;50.834;4.280;2023-07-31T10:16:38;18.90;99.90
23289;DHT22;11813;50.834;4.280;2023-07-31T10:19:05;18.90;99.90
23289;DHT22;11813;50.834;4.280;2023-07-31T10:21:32;19.00;99.90
23289;DHT22;11813;50.834;4.280;2023-07-31T10:24:04;19.00;99.90
23289;DHT22;11813;50.834;4.280;2023-07-31T10:26:31;19.00;99.90
23289;DHT22;11813;50.834;4.280;2023-07-31T10:28:58;19.10;99.90
23289;DHT22;11813;50.834;4.280;2023-07-31T10:31:24;19.10;99.90
23289;DHT22;11813;50.834;4.280;2023-07-31T10:33:51;19.10;99.90
23289;DHT22;11813;50.834;4.280;2023-07-31T10:36:19;19.20;99.90
23289;DHT22;11813;50.834;4.280;2023-07-31T10:38:45;19.10;99.90
23289;DHT22;11813;50.834;4.280;2023-07-31T10:41:13;19.10;99.90
23289;DHT22;11813;50.834;4.280;2023-07-31T10:43:39;19.10;99.90
23289;DHT22;11813;50.834;4.280;2023-07-31T10:46:14;19.20;99.90
23289;DHT22;11813;50.834;4.280;2023-07-31T10:48:41;19.20;99.90
23289;DHT22;11813;50.834;4.280;2023-07-31T10:51:11;19.20;99.90
23289;DHT22;11813;50.834;4.280;2023-07-31T10:53:38;19.30;99.90
23289;DHT22;11813;50.834;4.280;2023-07-31T10:56:08;19.30;99.90
23289;DHT22;11813;50.834;4.280;2023-07-31T10:58:35;19.40;99.90
23289;DHT22;11813;50.834;4.280;2023-07-31T11:01:03;19.50;99.90
23289;DHT22;11813;50.834;4.280;2023-07-31T11:03:45;19.50;99.90
23289;DHT22;11813;50.834;4.280;2023-07-31T11:06:13;19.60;99.90
23289;DHT22;11813;50.834;4.280;2023-07-31T11:08:44;19.70;99.90
23289;DHT22;11813;50.834;4.280;2023-07-31T11:11:11;19.70;99.90
23289;DHT22;11813;50.834;4.280;2023-07-31T11:13:41;19.80;99.90
23289;DHT22;11813;50.834;4.280;2023-07-31T11:16:07;19.70;99.90
23289;DHT22;11813;50.834;4.280;2023-07-31T11:18:32;19.80;99.90
23289;DHT22;11813;50.834;4.280;2023-07-31T11:20:58;19.90;99.90
23289;DHT22;11813;50.834;4.280;2023-07-31T11:23:24;19.90;99.90
23289;DHT22;11813;50.834;4.280;2023-07-31T11:25:50;19.90;99.90
23289;DHT22;11813;50.834;4.280;2023-07-31T11:28:17;19.80;99.90
23289;DHT22;11813;50.834;4.280;2023-07-31T11:30:44;19.70;99.90
23289;DHT22;11813;50.834;4.280;2023-07-31T11:33:12;19.80;99.90
23289;DHT22;11813;50.834;4.280;2023-07-31T11:35:43;19.90;99.90
23289;DHT22;11813;50.834;4.280;2023-07-31T11:38:11;19.90;99.90
23289;DHT22;11813;50.834;4.280;2023-07-31T11:40:44;19.90;99.90
23289;DHT22;11813;50.834;4.280;2023-07-31T11:43:10;19.70;99.90
23289;DHT22;11813;50.834;4.280;2023-07-31T11:45:39;19.70;99.90
23289;DHT22;11813;50.834;4.280;2023-07-31T11:48:05;19.70;99.90
23289;DHT22;11813;50.834;4.280;2023-07-31T11:50:33;19.80;99.90
23289;DHT22;11813;50.834;4.280;2023-07-31T11:53:06;19.80;99.90
23289;DHT22;11813;50.834;4.280;2023-07-31T11:55:33;19.80;99.90
23289;DHT22;11813;50.834;4.280;2023-07-31T11:57:59;19.80;99.90
23289;DHT22;11813;50.834;4.280;2023-07-31T12:00:25;19.90;99.90
23289;DHT22;11813;50.834;4.280;2023-07-31T12:02:51;19.90;99.90
23289;DHT22;11813;50.834;4.280;2023-07-31T12:05:18;19.90;99.90
23289;DHT22;11813;50.834;4.280;2023-07-31T12:07:51;20.00;99.90
23289;DHT22;11813;50.834;4.280;2023-07-31T12:13:10;20.10;99.90
23289;DHT22;11813;50.834;4.280;2023-07-31T12:15:40;20.10;99.90
23289;DHT22;11813;50.834;4.280;2023-07-31T12:20:35;20.20;99.90
23289;DHT22;11813;50.834;4.280;2023-07-31T12:23:01;20.20;99.90
23289;DHT22;11813;50.834;4.280;2023-07-31T12:25:31;20.30;99.90
23289;DHT22;11813;50.834;4.280;2023-07-31T12:27:57;20.40;99.90
23289;DHT22;11813;50.834;4.280;2023-07-31T12:30:28;20.50;99.90
23289;DHT22;11813;50.834;4.280;2023-07-31T12:32:54;20.50;99.90
23289;DHT22;11813;50.834;4.280;2023-07-31T12:35:19;20.50;99.90
23289;DHT22;11813;50.834;4.280;2023-07-31T12:37:45;20.60;99.90
23289;DHT22;11813;50.834;4.280;2023-07-31T12:40:11;20.50;99.90
23289;DHT22;11813;50.834;4.280;2023-07-31T12:42:36;20.50;99.90
23289;DHT22;11813;50.834;4.280;2023-07-31T12:45:02;20.50;99.90
23289;DHT22;11813;50.834;4.280;2023-07-31T12:47:29;20.60;99.90
23289;DHT22;11813;50.834;4.280;2023-07-31T12:49:55;20.70;99.90
23289;DHT22;11813;50.834;4.280;2023-07-31T12:52:20;20.70;99.90
23289;DHT22;11813;50.834;4.280;2023-07-31T12:54:46;20.80;99.90
23289;DHT22;11813;50.834;4.280;2023-07-31T12:57:11;21.00;99.90
23289;DHT22;11813;50.834;4.280;2023-07-31T12:59:37;20.80;99.90
23289;DHT22;11813;50.834;4.280;2023-07-31T13:02:03;20.80;99.90
23289;DHT22;11813;50.834;4.280;2023-07-31T13:04:28;20.60;99.90
23289;DHT22;11813;50.834;4.280;2023-07-31T13:06:54;20.50;99.90
23289;DHT22;11813;50.834;4.280;2023-07-31T13:09:20;20.40;99.90
23289;DHT22;11813;50.834;4.280;2023-07-31T13:11:45;20.20;99.90
23289;DHT22;11813;50.834;4.280;2023-07-31T13:14:11;20.00;99.90
23289;DHT22;11813;50.834;4.280;2023-07-31T13:16:37;19.90;99.90
23289;DHT22;11813;50.834;4.280;2023-07-31T13:19:03;19.90;99.90
23289;DHT22;11813;50.834;4.280;2023-07-31T13:21:29;19.80;99.90
23289;DHT22;11813;50.834;4.280;2023-07-31T13:23:54;19.80;99.90
23289;DHT22;11813;50.834;4.280;2023-07-31T13:26:23;19.60;99.90
23289;DHT22;11813;50.834;4.280;2023-07-31T13:28:48;19.60;99.90
23289;DHT22;11813;50.834;4.280;2023-07-31T13:31:14;19.60;99.90
23289;DHT22;11813;50.834;4.280;2023-07-31T13:33:40;19.40;99.90
23289;DHT22;11813;50.834;4.280;2023-07-31T13:36:05;19.30;99.90
23289;DHT22;11813;50.834;4.280;2023-07-31T13:38:31;19.10;99.90
23289;DHT22;11813;50.834;4.280;2023-07-31T13:40:56;19.20;99.90
23289;DHT22;11813;50.834;4.280;2023-07-31T13:43:22;19.10;99.90
23289;DHT22;11813;50.834;4.280;2023-07-31T13:45:47;19.10;99.90
23289;DHT22;11813;50.834;4.280;2023-07-31T13:48:13;19.10;99.90
23289;DHT22;11813;50.834;4.280;2023-07-31T13:50:38;19.10;99.90
23289;DHT22;11813;50.834;4.280;2023-07-31T13:53:04;19.10;99.90
23289;DHT22;11813;50.834;4.280;2023-07-31T13:55:30;19.00;99.90
23289;DHT22;11813;50.834;4.280;2023-07-31T13:57:55;19.00;99.90
23289;DHT22;11813;50.834;4.280;2023-07-31T14:00:21;19.10;99.90
23289;DHT22;11813;50.834;4.280;2023-07-31T14:02:46;19.00;99.90
23289;DHT22;11813;50.834;4.280;2023-07-31T14:05:12;19.00;99.90
23289;DHT22;11813;50.834;4.280;2023-07-31T14:07:37;19.10;99.90
23289;DHT22;11813;50.834;4.280;2023-07-31T14:10:04;19.10;99.90
23289;DHT22;11813;50.834;4.280;2023-07-31T14:12:29;19.10;99.90
23289;DHT22;11813;50.834;4.280;2023-07-31T14:14:56;19.00;99.90
23289;DHT22;11813;50.834;4.280;2023-07-31T14:17:21;19.00;99.90
23289;DHT22;11813;50.834;4.280;2023-07-31T14:19:47;18.90;99.90
23289;DHT22;11813;50.834;4.280;2023-07-31T14:22:12;19.00;99.90
23289;DHT22;11813;50.834;4.280;2023-07-31T14:24:38;19.00;99.90
23289;DHT22;11813;50.834;4.280;2023-07-31T14:27:04;19.00;99.90
23289;DHT22;11813;50.834;4.280;2023-07-31T14:29:30;19.10;99.90
23289;DHT22;11813;50.834;4.280;2023-07-31T14:31:55;19.10;99.90
23289;DHT22;11813;50.834;4.280;2023-07-31T14:34:21;19.00;99.90
23289;DHT22;11813;50.834;4.280;2023-07-31T14:36:46;19.00;99.90
23289;DHT22;11813;50.834;4.280;2023-07-31T14:39:12;19.00;99.90
23289;DHT22;11813;50.834;4.280;2023-07-31T14:41:38;19.10;99.90
23289;DHT22;11813;50.834;4.280;2023-07-31T14:44:03;19.00;99.90
23289;DHT22;11813;50.834;4.280;2023-07-31T14:46:29;19.00;99.90
23289;DHT22;11813;50.834;4.280;2023-07-31T14:48:54;19.10;99.90
23289;DHT22;11813;50.834;4.280;2023-07-31T14:51:20;19.10;99.90
23289;DHT22;11813;50.834;4.280;2023-07-31T14:53:46;19.10;99.90
23289;DHT22;11813;50.834;4.280;2023-07-31T14:56:12;19.10;99.90
23289;DHT22;11813;50.834;4.280;2023-07-31T14:58:38;19.00;99.90
23289;DHT22;11813;50.834;4.280;2023-07-31T15:01:03;19.00;99.90
23289;DHT22;11813;50.834;4.280;2023-07-31T15:03:29;18.90;99.90
23289;DHT22;11813;50.834;4.280;2023-07-31T15:05:55;18.90;99.90
23289;DHT22;11813;50.834;4.280;2023-07-31T15:08:21;18.90;99.90
23289;DHT22;11813;50.834;4.280;2023-07-31T15:10:46;18.90;99.90
23289;DHT22;11813;50.834;4.280;2023-07-31T15:13:12;18.90;99.90
23289;DHT22;11813;50.834;4.280;2023-07-31T15:15:37;18.90;99.90
23289;DHT22;11813;50.834;4.280;2023-07-31T15:18:03;18.90;99.90
23289;DHT22;11813;50.834;4.280;2023-07-31T15:20:28;18.80;99.90
23289;DHT22;11813;50.834;4.280;2023-07-31T15:22:55;18.90;99.90
23289;DHT22;11813;50.834;4.280;2023-07-31T15:25:20;18.90;99.90
23289;DHT22;11813;50.834;4.280;2023-07-31T15:27:46;18.90;99.90
23289;DHT22;11813;50.834;4.280;2023-07-31T15:30:12;18.80;99.90
23289;DHT22;11813;50.834;4.280;2023-07-31T15:32:38;18.90;99.90
23289;DHT22;11813;50.834;4.280;2023-07-31T15:35:05;19.00;99.90
23289;DHT22;11813;50.834;4.280;2023-07-31T15:37:30;18.90;99.90
23289;DHT22;11813;50.834;4.280;2023-07-31T15:39:56;18.90;99.90